Terminal Aerodrome Forecast
Issued by NWS

Home | Current Version | Previous Version | Text Only | Print | Product List | Glossary On
Versions: 1 2 3 4 5 6 7 8 9 10 11 12 13 14 15
000
FTUS46 KSGX 281700
TAFSNA
TAF
KSNA 281720Z 2818/2918 VRB04KT P6SM SCT250
     FM282100 24007KT P6SM BKN200
     FM290100 VRB04KT P6SM BKN150=

USA.gov is the U.S. government's official web portal to all federal, state and local government web resources and services.